createdAt,value
2018-08-09T00:00:25.801Z,96814.95
2018-08-09T00:02:53.272Z,96808.84
2018-08-09T00:05:21.135Z,96813.14
2018-08-09T00:07:48.543Z,96810.58
2018-08-09T00:10:17.391Z,96813.44
2018-08-09T00:12:44.755Z,96814.76
2018-08-09T00:15:12.102Z,96808.19
2018-08-09T00:17:39.501Z,96811.80
2018-08-09T00:20:07.047Z,96810.19
2018-08-09T00:22:34.367Z,96805.77
2018-08-09T00:25:01.717Z,96804.81
2018-08-09T00:27:29.148Z,96803.67
2018-08-09T00:29:56.682Z,96801.19
2018-08-09T00:32:24.130Z,96798.79
2018-08-09T00:34:51.429Z,96795.53
2018-08-09T00:37:18.638Z,96799.59
2018-08-09T00:39:45.867Z,96794.81
2018-08-09T00:42:13.111Z,96794.76
2018-08-09T00:44:40.714Z,96788.77
2018-08-09T00:47:08.056Z,96804.00
2018-08-09T00:49:35.347Z,96795.48
2018-08-09T00:52:02.552Z,96791.53
2018-08-09T00:54:29.829Z,96785.95
2018-08-09T00:56:56.997Z,96781.10
2018-08-09T00:59:24.216Z,96782.05
2018-08-09T01:01:51.429Z,96777.80
2018-08-09T01:04:19.018Z,96780.77
2018-08-09T01:06:46.414Z,96772.71
2018-08-09T01:09:14.321Z,96776.29
2018-08-09T01:11:41.564Z,96767.80
2018-08-09T01:14:08.833Z,96777.70
2018-08-09T01:16:36.170Z,96779.36
2018-08-09T01:19:03.544Z,96771.08
2018-08-09T01:21:30.884Z,96770.52
2018-08-09T01:23:58.405Z,96773.23
2018-08-09T01:26:25.674Z,96774.45
2018-08-09T01:28:52.931Z,96771.19
2018-08-09T01:31:27.904Z,96784.05
2018-08-09T01:33:55.162Z,96783.77
2018-08-09T01:36:22.773Z,96793.77
2018-08-09T01:38:50.034Z,96792.34
2018-08-09T01:41:17.337Z,96802.27
2018-08-09T01:43:51.918Z,96793.19
2018-08-09T01:46:19.124Z,96788.88
2018-08-09T01:48:46.733Z,96792.75
2018-08-09T01:51:14.058Z,96789.72
2018-08-09T01:53:41.380Z,96782.94
2018-08-09T01:56:08.620Z,96783.16
2018-08-09T01:58:35.875Z,96795.33
2018-08-09T02:01:03.114Z,96792.18
2018-08-09T02:03:30.526Z,96796.19
2018-08-09T02:05:57.735Z,96793.76
2018-08-09T02:08:24.966Z,96793.50
2018-08-09T02:10:52.578Z,96795.47
2018-08-09T02:13:19.897Z,96785.88
2018-08-09T02:15:47.123Z,96790.17
2018-08-09T02:18:14.476Z,96793.23
2018-08-09T02:20:42.003Z,96783.13
2018-08-09T02:23:09.268Z,96800.81
2018-08-09T02:25:36.489Z,96803.60
2018-08-09T02:28:03.740Z,96801.75
2018-08-09T02:30:30.982Z,96794.42
2018-08-09T02:32:58.253Z,96794.42
2018-08-09T02:35:25.465Z,96798.34
2018-08-09T02:37:52.689Z,96803.08
2018-08-09T02:40:20.094Z,96795.19
2018-08-09T02:42:47.348Z,96793.64
2018-08-09T02:45:14.554Z,96789.64
2018-08-09T02:47:41.770Z,96797.71
2018-08-09T02:50:09.042Z,96800.22
2018-08-09T02:52:36.395Z,96790.97
2018-08-09T02:55:03.818Z,96787.80
2018-08-09T02:57:31.053Z,96791.95
2018-08-09T02:59:58.276Z,96791.81
2018-08-09T03:02:25.505Z,96789.52
2018-08-09T03:04:52.737Z,96791.80
2018-08-09T03:07:19.925Z,96791.12
2018-08-09T03:09:47.612Z,96793.09
2018-08-09T03:12:14.872Z,96793.97
2018-08-09T03:14:42.120Z,96797.61
2018-08-09T03:17:09.670Z,96790.56
2018-08-09T03:19:36.813Z,96787.97
2018-08-09T03:22:04.062Z,96778.54
2018-08-09T03:24:31.399Z,96779.42
2018-08-09T03:26:58.593Z,96778.84
2018-08-09T03:29:25.869Z,96778.08
2018-08-09T03:31:53.414Z,96781.36
2018-08-09T03:34:20.864Z,96778.89
2018-08-09T03:36:48.136Z,96779.31
2018-08-09T03:39:15.341Z,96773.91
2018-08-09T03:41:42.525Z,96774.91
2018-08-09T03:44:09.726Z,96775.81
2018-08-09T03:46:37.009Z,96778.67
2018-08-09T03:49:04.308Z,96777.64
2018-08-09T03:51:31.700Z,96784.51
2018-08-09T03:53:58.948Z,96784.70
2018-08-09T03:56:26.125Z,96783.70
2018-08-09T03:58:53.325Z,96788.63
2018-08-09T04:01:20.569Z,96790.91
2018-08-09T04:03:48.086Z,96757.19
2018-08-09T04:06:15.339Z,96786.16
2018-08-09T04:08:42.558Z,96788.88
2018-08-09T04:11:09.877Z,96787.29
2018-08-09T04:13:37.116Z,96794.80
2018-08-09T04:16:04.513Z,96794.20
2018-08-09T04:18:32.009Z,96802.59
2018-08-09T04:20:59.553Z,96613.36
2018-08-09T04:23:26.853Z,96800.02
2018-08-09T04:25:54.143Z,96802.61
2018-08-09T04:28:21.320Z,96806.19
2018-08-09T04:30:48.614Z,96809.97
2018-08-09T04:33:15.849Z,96814.33
2018-08-09T04:35:43.097Z,96811.30
2018-08-09T04:38:10.278Z,96814.38
2018-08-09T04:40:37.512Z,96812.50
2018-08-09T04:43:04.805Z,96814.05
2018-08-09T04:45:32.034Z,96817.78
2018-08-09T04:47:59.260Z,96822.24
2018-08-09T04:50:26.538Z,96825.06
2018-08-09T04:52:54.001Z,96821.81
2018-08-09T04:55:21.257Z,96819.98
2018-08-09T04:57:48.473Z,96811.77
2018-08-09T05:00:15.769Z,96817.65
2018-08-09T05:02:43.044Z,96810.90
2018-08-09T05:05:10.229Z,96813.27
2018-08-09T05:07:37.540Z,96811.81
2018-08-09T05:10:10.784Z,96813.05
2018-08-09T05:12:39.308Z,96821.53
2018-08-09T05:15:06.544Z,96814.88
2018-08-09T05:17:34.231Z,96816.50
2018-08-09T05:20:01.785Z,96826.12
2018-08-09T05:22:28.989Z,96826.02
2018-08-09T05:24:56.314Z,96819.97
2018-08-09T05:27:23.577Z,96823.05
2018-08-09T05:29:50.837Z,96817.08
2018-08-09T05:32:18.029Z,96820.28
2018-08-09T05:34:45.606Z,96813.64
2018-08-09T05:37:12.787Z,96821.44
2018-08-09T05:39:40.026Z,96820.52
2018-08-09T05:42:07.233Z,96814.98
2018-08-09T05:44:34.473Z,96815.94
2018-08-09T05:47:01.661Z,96822.27
2018-08-09T05:49:29.326Z,96816.73
2018-08-09T05:51:56.572Z,96815.44
2018-08-09T05:54:23.837Z,96814.08
2018-08-09T05:56:51.051Z,96816.00
2018-08-09T05:59:18.229Z,96817.27
2018-08-09T06:01:45.869Z,96815.64
2018-08-09T06:04:13.235Z,96823.83
2018-08-09T06:06:40.416Z,96825.89
2018-08-09T06:09:09.509Z,96826.19
2018-08-09T06:11:36.708Z,96823.94
2018-08-09T06:14:03.944Z,96823.19
2018-08-09T06:16:31.182Z,96827.10
2018-08-09T06:18:58.456Z,96825.40
2018-08-09T06:21:25.584Z,96832.59
2018-08-09T06:23:52.817Z,96830.70
2018-08-09T06:26:20.133Z,96833.20
2018-08-09T06:28:47.385Z,96834.00
2018-08-09T06:31:14.525Z,96833.51
2018-08-09T06:33:41.737Z,96829.94
2018-08-09T06:36:08.992Z,96831.12
2018-08-09T06:38:36.216Z,96829.95
2018-08-09T06:41:03.532Z,96826.80
2018-08-09T06:43:30.812Z,96826.51
2018-08-09T06:45:58.033Z,96824.72
2018-08-09T06:48:25.567Z,96827.25
2018-08-09T06:50:52.862Z,96823.02
2018-08-09T06:53:20.081Z,96799.45
2018-08-09T06:55:47.488Z,96822.45
2018-08-09T06:58:14.710Z,96816.42
2018-08-09T07:00:41.982Z,96818.42
2018-08-09T07:03:09.221Z,96812.86
2018-08-09T07:05:36.492Z,96818.34
2018-08-09T07:08:03.723Z,96819.44
2018-08-09T07:10:30.995Z,96815.20
2018-08-09T07:12:58.231Z,96811.54
2018-08-09T07:15:25.498Z,96813.09
2018-08-09T07:17:52.941Z,96812.92
2018-08-09T07:20:20.255Z,96810.67
2018-08-09T07:22:47.489Z,96802.97
2018-08-09T07:25:14.844Z,96805.88
2018-08-09T07:27:42.045Z,96804.84
2018-08-09T07:30:10.994Z,96800.13
2018-08-09T07:32:38.357Z,96797.53
2018-08-09T07:35:06.096Z,96800.34
2018-08-09T07:37:33.311Z,96796.38
2018-08-09T07:40:00.528Z,96794.67
2018-08-09T07:42:27.766Z,96796.58
2018-08-09T07:44:54.973Z,96800.94
2018-08-09T07:47:22.252Z,96791.11
2018-08-09T07:49:49.478Z,96787.38
2018-08-09T07:52:16.881Z,96780.34
2018-08-09T07:54:44.054Z,96779.75
2018-08-09T07:57:11.299Z,96780.79
2018-08-09T07:59:38.490Z,96778.33
2018-08-09T08:02:05.649Z,96773.23
2018-08-09T08:04:32.944Z,96778.88
2018-08-09T08:07:00.374Z,96774.06
2018-08-09T08:09:27.682Z,96777.66
2018-08-09T08:11:54.865Z,96777.13
2018-08-09T08:14:22.086Z,96771.45
2018-08-09T08:16:49.375Z,96771.58
2018-08-09T08:19:16.620Z,96775.19
2018-08-09T08:21:43.899Z,96775.49
2018-08-09T08:24:11.121Z,96771.50
2018-08-09T08:26:38.354Z,96772.79
2018-08-09T08:29:05.576Z,96770.55
2018-08-09T08:31:32.834Z,96766.70
2018-08-09T08:34:00.177Z,96763.30
2018-08-09T08:36:27.391Z,96762.06
2018-08-09T08:38:54.607Z,96766.30
2018-08-09T08:41:21.919Z,96762.48
2018-08-09T08:43:49.125Z,96763.42
2018-08-09T08:46:16.348Z,96758.28
2018-08-09T08:48:43.574Z,96752.12
2018-08-09T08:51:10.776Z,96744.30
2018-08-09T08:53:37.988Z,96741.25
2018-08-09T08:56:05.225Z,96738.41
2018-08-09T08:58:32.408Z,96739.00
2018-08-09T09:00:59.818Z,96735.20
2018-08-09T09:03:27.053Z,96735.86
2018-08-09T09:05:54.372Z,96730.90
2018-08-09T09:08:21.615Z,96725.13
2018-08-09T09:10:52.933Z,96722.51
2018-08-09T09:13:20.250Z,96712.36
2018-08-09T09:15:47.520Z,96713.03
2018-08-09T09:18:14.796Z,96705.84
2018-08-09T09:20:42.081Z,96699.55
2018-08-09T09:23:09.371Z,96688.33
2018-08-09T09:25:36.645Z,96693.94
2018-08-09T09:28:03.874Z,96695.91
2018-08-09T09:30:31.129Z,96691.09
2018-08-09T09:32:58.369Z,96684.72
2018-08-09T09:35:25.536Z,96689.14
2018-08-09T09:37:52.751Z,96686.72
2018-08-09T09:40:19.966Z,96680.34
2018-08-09T09:42:47.149Z,96677.35
2018-08-09T09:45:14.447Z,96690.86
2018-08-09T09:47:41.704Z,96683.53
2018-08-09T09:50:09.813Z,96675.97
2018-08-09T09:52:37.113Z,96681.31
2018-08-09T09:55:04.733Z,96669.14
2018-08-09T09:57:32.022Z,96675.06
2018-08-09T09:59:59.252Z,96667.31
2018-08-09T10:02:26.498Z,96665.80
2018-08-09T10:04:53.691Z,96668.06
2018-08-09T10:07:20.953Z,96658.38
2018-08-09T10:09:48.177Z,96657.13
2018-08-09T10:12:15.405Z,96652.46
2018-08-09T10:14:42.773Z,96646.86
2018-08-09T10:17:09.998Z,96647.68
2018-08-09T10:19:37.234Z,96643.66
2018-08-09T10:22:04.462Z,96644.80
2018-08-09T10:24:31.900Z,96642.20
2018-08-09T10:26:59.204Z,96638.56
2018-08-09T10:29:26.452Z,96638.27
2018-08-09T10:31:53.664Z,96647.39
2018-08-09T10:34:21.018Z,96639.79
2018-08-09T10:36:48.258Z,96632.19
2018-08-09T10:39:15.461Z,96624.19
2018-08-09T10:41:42.898Z,96625.27
2018-08-09T10:44:10.309Z,96630.48
2018-08-09T10:46:37.655Z,96627.86
2018-08-09T10:49:06.128Z,96630.33
2018-08-09T10:51:33.425Z,96624.66
2018-08-09T10:54:00.730Z,96619.05
2018-08-09T10:56:28.090Z,96620.27
2018-08-09T10:58:55.340Z,96614.97
2018-08-09T11:01:22.668Z,96609.30
2018-08-09T11:03:50.086Z,96617.77
2018-08-09T11:06:17.390Z,96614.33
2018-08-09T11:08:44.664Z,96602.76
2018-08-09T11:11:13.228Z,96602.55
2018-08-09T11:13:42.311Z,96596.85
2018-08-09T11:16:09.776Z,96591.02
2018-08-09T11:18:37.051Z,96590.73
2018-08-09T11:21:04.297Z,96586.08
2018-08-09T11:23:31.821Z,96587.86
2018-08-09T11:25:59.196Z,96579.69
2018-08-09T11:28:26.429Z,96580.28
2018-08-09T11:30:53.780Z,96577.70
2018-08-09T11:33:21.205Z,96569.34
2018-08-09T11:35:48.531Z,96564.56
2018-08-09T11:38:15.884Z,96561.05
2018-08-09T11:40:43.276Z,96563.58
2018-08-09T11:43:11.696Z,96561.38
2018-08-09T11:45:39.002Z,96558.28
2018-08-09T11:48:06.504Z,96555.48
2018-08-09T11:50:33.876Z,96546.75
2018-08-09T11:53:01.158Z,96549.52
2018-08-09T11:55:28.417Z,96541.20
2018-08-09T11:57:55.693Z,96530.62
2018-08-09T12:00:23.002Z,96528.16
2018-08-09T12:02:50.300Z,96537.17
2018-08-09T12:05:17.648Z,96533.58
2018-08-09T12:07:45.093Z,96534.47
2018-08-09T12:10:12.518Z,96524.64
2018-08-09T12:12:40.048Z,96531.73
2018-08-09T12:15:07.448Z,96527.58
2018-08-09T12:17:34.880Z,96531.30
2018-08-09T12:20:02.318Z,96523.00
2018-08-09T12:22:29.938Z,96518.91
2018-08-09T12:24:57.334Z,96515.19
2018-08-09T12:27:24.764Z,96511.44
2018-08-09T12:29:52.191Z,96509.83
2018-08-09T12:32:19.699Z,96511.70
2018-08-09T12:34:47.044Z,96501.13
2018-08-09T12:37:14.443Z,96500.15
2018-08-09T12:39:42.066Z,96507.44
2018-08-09T12:42:09.633Z,96508.77
2018-08-09T12:44:37.180Z,96505.63
2018-08-09T12:47:04.753Z,96504.16
2018-08-09T12:49:32.072Z,96508.17
2018-08-09T12:51:59.496Z,96501.81
2018-08-09T12:54:26.879Z,96494.87
2018-08-09T12:56:54.230Z,96485.05
2018-08-09T12:59:21.817Z,96470.63
2018-08-09T13:01:49.268Z,96473.20
2018-08-09T13:04:16.722Z,96483.00
2018-08-09T13:06:44.148Z,96473.64
2018-08-09T13:09:11.886Z,96465.67
2018-08-09T13:11:39.410Z,96455.91
2018-08-09T13:14:06.852Z,96452.53
2018-08-09T13:16:34.342Z,96443.72
2018-08-09T13:19:01.749Z,96450.63
2018-08-09T13:21:29.290Z,96443.50
2018-08-09T13:23:56.669Z,96439.86
2018-08-09T13:26:24.083Z,96439.73
2018-08-09T13:28:51.526Z,96428.97
2018-08-09T13:31:18.914Z,96427.94
2018-08-09T13:33:46.235Z,96423.23
2018-08-09T13:36:13.609Z,96426.13
2018-08-09T13:38:40.958Z,96431.77
2018-08-09T13:41:08.295Z,96434.89
2018-08-09T13:43:35.774Z,96430.84
2018-08-09T13:46:03.226Z,96426.46
2018-08-09T13:48:30.568Z,96410.55
2018-08-09T13:50:58.701Z,96409.41
2018-08-09T13:53:26.230Z,96407.45
2018-08-09T13:55:53.584Z,96402.22
2018-08-09T13:58:21.013Z,96401.50
2018-08-09T14:00:48.321Z,96405.70
2018-08-09T14:03:15.691Z,96400.49
2018-08-09T14:05:43.138Z,96395.48
2018-08-09T14:08:10.487Z,96388.95
2018-08-09T14:10:37.936Z,96386.86
2018-08-09T14:13:05.485Z,96385.64
2018-08-09T14:15:32.925Z,96371.73
2018-08-09T14:18:00.295Z,96379.30
2018-08-09T14:20:27.614Z,96378.84
2018-08-09T14:22:54.993Z,96378.80
2018-08-09T14:25:22.519Z,96380.58
2018-08-09T14:27:49.940Z,96376.09
2018-08-09T14:30:17.359Z,96381.33
2018-08-09T14:32:45.145Z,96379.20
2018-08-09T14:35:14.172Z,96375.41
2018-08-09T14:37:42.503Z,96374.81
2018-08-09T14:40:10.735Z,96380.63
2018-08-09T14:42:38.163Z,96374.55
2018-08-09T14:45:09.906Z,96378.34
2018-08-09T14:47:37.419Z,96379.30
2018-08-09T14:50:05.359Z,96377.30
2018-08-09T14:52:32.895Z,96383.56
2018-08-09T14:55:00.416Z,96382.08
2018-08-09T14:57:27.961Z,96381.44
2018-08-09T14:59:55.488Z,96379.78
2018-08-09T15:02:22.938Z,96387.19
2018-08-09T15:04:50.287Z,96395.30
2018-08-09T15:07:17.686Z,96383.70
2018-08-09T15:09:45.177Z,96387.26
2018-08-09T15:12:12.627Z,96388.52
2018-08-09T15:14:40.041Z,96384.83
2018-08-09T15:17:07.564Z,96378.95
2018-08-09T15:19:34.980Z,96381.19
2018-08-09T15:22:02.371Z,96384.64
2018-08-09T15:24:29.928Z,96382.92
2018-08-09T15:26:57.305Z,96389.70
2018-08-09T15:29:24.668Z,96382.41
2018-08-09T15:31:52.004Z,96382.31
2018-08-09T15:34:19.421Z,96389.34
2018-08-09T15:36:46.748Z,96394.88
2018-08-09T15:39:14.293Z,96390.52
2018-08-09T15:41:42.400Z,96390.97
2018-08-09T15:44:10.484Z,96392.30
2018-08-09T15:46:37.895Z,96381.33
2018-08-09T15:49:05.334Z,96380.14
2018-08-09T15:51:32.762Z,96385.34
2018-08-09T15:54:00.196Z,96383.34
2018-08-09T15:56:27.663Z,96372.89
2018-08-09T15:58:55.150Z,96371.64
2018-08-09T16:01:22.683Z,96377.80
2018-08-09T16:03:50.268Z,96377.80
2018-08-09T16:06:17.715Z,96377.23
2018-08-09T16:08:45.357Z,96381.28
2018-08-09T16:11:12.800Z,96383.05
2018-08-09T16:13:40.220Z,96385.08
2018-08-09T16:16:07.776Z,96384.50
2018-08-09T16:18:35.063Z,96388.36
2018-08-09T16:21:02.539Z,96383.07
2018-08-09T16:23:29.910Z,96372.95
2018-08-09T16:25:57.353Z,96375.45
2018-08-09T16:28:24.651Z,96378.97
2018-08-09T16:30:52.197Z,96375.11
2018-08-09T16:33:19.725Z,96375.30
2018-08-09T16:35:47.181Z,96371.74
2018-08-09T16:38:14.690Z,96372.84
2018-08-09T16:40:42.410Z,96375.45
2018-08-09T16:43:10.015Z,96378.28
2018-08-09T16:48:16.912Z,96381.22
2018-08-09T16:50:44.149Z,96385.01
2018-08-09T16:53:11.324Z,96385.45
2018-08-09T16:55:38.616Z,96390.65
2018-08-09T16:58:05.769Z,96421.04
2018-08-09T17:00:33.019Z,96441.69
2018-08-09T17:03:00.198Z,96455.48
2018-08-09T17:05:27.752Z,96481.34
2018-08-09T17:07:54.928Z,96492.76
2018-08-09T17:10:23.168Z,96505.83
2018-08-09T17:12:50.418Z,96510.30
2018-08-09T17:28:17.892Z,96521.12
2018-08-09T17:30:45.082Z,96545.05
2018-08-09T17:33:12.304Z,96535.10
2018-08-09T17:35:39.476Z,96544.27
2018-08-09T17:38:06.684Z,96553.18
2018-08-09T17:40:34.140Z,96554.61
2018-08-09T17:43:02.247Z,96554.61
2018-08-09T17:45:31.066Z,96557.29
2018-08-09T17:47:58.597Z,96556.84
2018-08-09T17:50:25.827Z,96556.23
2018-08-09T17:52:54.161Z,96566.09
2018-08-09T17:55:21.344Z,96567.61
2018-08-09T18:00:24.559Z,96570.66
2018-08-09T18:02:52.257Z,96582.57
2018-08-09T18:05:19.432Z,96579.27
2018-08-09T18:07:46.661Z,96569.66
2018-08-09T18:10:16.477Z,96574.14
2018-08-09T18:12:43.735Z,96569.77
2018-08-09T18:15:10.927Z,96566.53
2018-08-09T18:17:38.822Z,96573.02
2018-08-09T18:20:10.586Z,96572.85
2018-08-09T18:22:37.911Z,96579.95
2018-08-09T18:25:07.334Z,96570.39
2018-08-09T18:27:34.522Z,96574.09
2018-08-09T18:30:01.752Z,96584.81
2018-08-09T18:32:28.925Z,96589.80
2018-08-09T18:34:56.243Z,96588.78
2018-08-09T18:37:23.400Z,96586.55
2018-08-09T18:39:50.891Z,96596.66
2018-08-09T18:42:18.162Z,96602.18
2018-08-09T18:44:45.466Z,96600.73
2018-08-09T18:47:12.721Z,96608.16
2018-08-09T18:49:39.974Z,96609.87
2018-08-09T18:52:07.183Z,96614.44
2018-08-09T18:54:34.368Z,96617.47
2018-08-09T18:57:01.565Z,96624.59
2018-08-09T18:59:28.877Z,96623.75
2018-08-09T19:01:56.136Z,96628.92
2018-08-09T19:04:23.385Z,96624.55
2018-08-09T19:06:50.660Z,96640.73
2018-08-09T19:09:17.930Z,96648.92
2018-08-09T19:11:45.197Z,96650.52
2018-08-09T19:14:12.376Z,96661.17
2018-08-09T19:16:39.574Z,96661.42
2018-08-09T19:19:06.829Z,96670.91
2018-08-09T19:21:34.093Z,96673.38
2018-08-09T19:24:01.307Z,96678.16
2018-08-09T19:26:28.561Z,96669.89
2018-08-09T19:28:55.921Z,96665.71
2018-08-09T19:31:23.799Z,96674.42
2018-08-09T19:33:50.961Z,96680.95
2018-08-09T19:36:18.235Z,96690.99
2018-08-09T19:38:45.553Z,96689.41
2018-08-09T19:41:12.907Z,96702.50
2018-08-09T19:43:40.080Z,96704.92
2018-08-09T19:46:07.296Z,96711.37
2018-08-09T19:48:35.794Z,96712.69
2018-08-09T19:51:03.041Z,96717.58
2018-08-09T19:53:30.242Z,96727.12
2018-08-09T19:55:57.449Z,96729.39
2018-08-09T19:58:24.755Z,96738.81
2018-08-09T20:00:51.997Z,96743.12
2018-08-09T20:03:19.248Z,96744.91
2018-08-09T20:05:46.382Z,96751.45
2018-08-09T20:08:13.549Z,96751.67
2018-08-09T20:10:40.769Z,96759.28
2018-08-09T20:13:07.929Z,96759.39
2018-08-09T20:15:35.112Z,96757.98
2018-08-09T20:18:02.310Z,96751.56
2018-08-09T20:20:29.594Z,96763.13
2018-08-09T20:22:56.855Z,96759.16
2018-08-09T20:25:24.064Z,96767.66
2018-08-09T20:27:51.293Z,96772.91
2018-08-09T20:30:18.988Z,96773.27
2018-08-09T20:32:46.611Z,96775.97
2018-08-09T20:35:15.359Z,96777.59
2018-08-09T20:37:43.601Z,96785.40
2018-08-09T20:40:11.562Z,96799.63
2018-08-09T20:42:39.222Z,96802.56
2018-08-09T20:45:07.920Z,96800.17
2018-08-09T20:47:35.372Z,96807.17
2018-08-09T20:50:02.916Z,96803.34
2018-08-09T20:52:30.095Z,96798.38
2018-08-09T20:54:57.331Z,96801.95
2018-08-09T20:57:24.551Z,96809.06
2018-08-09T20:59:51.872Z,96821.61
2018-08-09T21:02:19.114Z,96820.72
2018-08-09T21:04:46.281Z,96828.41
2018-08-09T21:07:13.450Z,96833.49
2018-08-09T21:09:40.644Z,96831.50
2018-08-09T21:12:07.836Z,96839.92
2018-08-09T21:14:35.116Z,96843.85
2018-08-09T21:17:02.352Z,96844.02
2018-08-09T21:19:29.568Z,96846.23
2018-08-09T21:21:56.888Z,96854.22
2018-08-09T21:24:24.197Z,96865.69
2018-08-09T21:26:51.401Z,96877.66
2018-08-09T21:29:18.597Z,96878.61
2018-08-09T21:31:45.868Z,96873.40
2018-08-09T21:34:13.093Z,96881.22
2018-08-09T21:36:40.273Z,96895.17
2018-08-09T21:39:09.039Z,96901.05
2018-08-09T21:41:36.263Z,96900.05
2018-08-09T21:44:03.544Z,96916.02
2018-08-09T21:46:30.704Z,96919.23
2018-08-09T21:48:57.977Z,96931.79
2018-08-09T21:51:25.339Z,96944.16
2018-08-09T21:53:52.420Z,96946.30
2018-08-09T21:56:19.566Z,96960.05
2018-08-09T21:58:46.707Z,96970.95
2018-08-09T22:01:14.021Z,96970.92
2018-08-09T22:03:41.477Z,96979.95
2018-08-09T22:06:14.348Z,96982.41
2018-08-09T22:08:47.225Z,96977.63
2018-08-09T22:11:20.009Z,96976.37
2018-08-09T22:13:52.876Z,96971.88
2018-08-09T22:16:25.865Z,96967.50
2018-08-09T22:18:58.595Z,96968.04
2018-08-09T22:21:31.465Z,96964.02
2018-08-09T22:23:58.632Z,96959.75
2018-08-09T22:26:25.785Z,96961.34
2018-08-09T22:28:53.265Z,96975.12
2018-08-09T22:31:20.513Z,96982.37
2018-08-09T22:33:47.652Z,96991.05
2018-08-09T22:36:14.926Z,96990.89
2018-08-09T22:38:42.115Z,96995.11
2018-08-09T22:41:09.447Z,97001.45
2018-08-09T22:43:36.868Z,96994.53
2018-08-09T22:46:04.376Z,96993.55
2018-08-09T22:48:31.697Z,97003.43
2018-08-09T22:50:58.873Z,97003.22
2018-08-09T22:53:26.090Z,97018.25
2018-08-09T22:55:53.400Z,97013.45
2018-08-09T22:58:20.632Z,97030.18
2018-08-09T23:00:47.871Z,97035.21
2018-08-09T23:03:15.083Z,97035.04
2018-08-09T23:05:42.241Z,97039.69
2018-08-09T23:08:10.726Z,97046.41
2018-08-09T23:10:38.588Z,97056.23
2018-08-09T23:13:06.068Z,97054.50
2018-08-09T23:15:33.240Z,97055.08
2018-08-09T23:18:00.385Z,97063.53
2018-08-09T23:20:27.556Z,97070.07
2018-08-09T23:22:54.763Z,97071.81
2018-08-09T23:25:21.891Z,97075.30
2018-08-09T23:27:49.053Z,97063.73
2018-08-09T23:30:16.236Z,97062.95
2018-08-09T23:32:43.380Z,97061.59
2018-08-09T23:35:10.970Z,97056.43
2018-08-09T23:37:38.200Z,97062.41
2018-08-09T23:40:07.521Z,97061.78
2018-08-09T23:42:35.850Z,97067.94
2018-08-09T23:45:03.518Z,97069.71
2018-08-09T23:47:30.781Z,97073.74
2018-08-09T23:49:57.953Z,97074.72
2018-08-09T23:52:25.150Z,97062.20
2018-08-09T23:54:52.332Z,97080.53
2018-08-09T23:57:19.441Z,97084.94
2018-08-09T23:59:46.689Z,97079.36
